sensor_id;sensor_type;location;lat;lon;timestamp;pressure;altitude;pressure_sealevel;temperature;humidity
45894;BME280;31603;51.148;16.932;2022-11-20T00:01:04;99843.56;;;-3.01;100.00
45894;BME280;31603;51.148;16.932;2022-11-20T00:03:31;99769.34;;;-3.55;100.00
45894;BME280;31603;51.148;16.932;2022-11-20T00:06:01;99789.91;;;-3.24;100.00
45894;BME280;31603;51.148;16.932;2022-11-20T00:08:38;99800.41;;;-3.21;100.00
45894;BME280;31603;51.148;16.932;2022-11-20T00:11:08;99780.41;;;-3.49;100.00
45894;BME280;31603;51.148;16.932;2022-11-20T00:13:46;99759.19;;;-3.52;100.00
45894;BME280;31603;51.148;16.932;2022-11-20T00:16:35;99823.69;;;-3.10;100.00
45894;BME280;31603;51.148;16.932;2022-11-20T00:19:11;99835.28;;;-3.09;100.00
45894;BME280;31603;51.148;16.932;2022-11-20T00:21:42;99814.78;;;-3.31;100.00
45894;BME280;31603;51.148;16.932;2022-11-20T00:24:09;99790.31;;;-3.49;100.00
45894;BME280;31603;51.148;16.932;2022-11-20T00:26:36;99837.69;;;-3.37;100.00
45894;BME280;31603;51.148;16.932;2022-11-20T00:29:03;99785.84;;;-3.60;100.00
45894;BME280;31603;51.148;16.932;2022-11-20T00:31:30;99842.91;;;-3.35;100.00
45894;BME280;31603;51.148;16.932;2022-11-20T00:34:00;99810.72;;;-3.26;100.00
45894;BME280;31603;51.148;16.932;2022-11-20T00:36:42;99774.66;;;-3.65;100.00
45894;BME280;31603;51.148;16.932;2022-11-20T00:39:23;99756.16;;;-3.58;100.00
45894;BME280;31603;51.148;16.932;2022-11-20T00:41:49;99839.97;;;-3.32;100.00
45894;BME280;31603;51.148;16.932;2022-11-20T00:44:35;99791.34;;;-3.82;100.00
45894;BME280;31603;51.148;16.932;2022-11-20T00:47:05;99763.44;;;-3.91;100.00
45894;BME280;31603;51.148;16.932;2022-11-20T00:49:37;99745.34;;;-4.21;100.00
45894;BME280;31603;51.148;16.932;2022-11-20T00:52:08;99752.63;;;-4.12;100.00
45894;BME280;31603;51.148;16.932;2022-11-20T00:54:38;99841.59;;;-3.62;100.00
45894;BME280;31603;51.148;16.932;2022-11-20T00:57:05;99855.63;;;-3.58;100.00
45894;BME280;31603;51.148;16.932;2022-11-20T00:59:33;99828.28;;;-3.43;100.00
45894;BME280;31603;51.148;16.932;2022-11-20T01:02:01;99840.63;;;-3.40;100.00
45894;BME280;31603;51.148;16.932;2022-11-20T01:04:43;99850.63;;;-3.42;100.00
45894;BME280;31603;51.148;16.932;2022-11-20T01:07:26;99749.06;;;-4.01;100.00
45894;BME280;31603;51.148;16.932;2022-11-20T01:10:16;99793.47;;;-3.65;100.00
45894;BME280;31603;51.148;16.932;2022-11-20T01:12:43;99842.22;;;-3.70;100.00
45894;BME280;31603;51.148;16.932;2022-11-20T01:15:29;99809.97;;;-4.02;100.00
45894;BME280;31603;51.148;16.932;2022-11-20T01:18:02;99732.44;;;-3.95;100.00
45894;BME280;31603;51.148;16.932;2022-11-20T01:20:34;99833.38;;;-3.60;100.00
45894;BME280;31603;51.148;16.932;2022-11-20T01:23:03;99858.75;;;-3.85;100.00
45894;BME280;31603;51.148;16.932;2022-11-20T01:25:32;99842.44;;;-3.94;100.00
45894;BME280;31603;51.148;16.932;2022-11-20T01:28:01;99824.72;;;-3.64;100.00
45894;BME280;31603;51.148;16.932;2022-11-20T01:30:29;99854.66;;;-3.36;100.00
45894;BME280;31603;51.148;16.932;2022-11-20T01:32:55;99813.91;;;-3.53;100.00
45894;BME280;31603;51.148;16.932;2022-11-20T01:35:22;99808.47;;;-3.63;100.00
45894;BME280;31603;51.148;16.932;2022-11-20T01:37:49;99780.69;;;-3.73;100.00
45894;BME280;31603;51.148;16.932;2022-11-20T01:40:37;99845.09;;;-3.29;100.00
45894;BME280;31603;51.148;16.932;2022-11-20T01:43:12;99808.53;;;-3.74;100.00
45894;BME280;31603;51.148;16.932;2022-11-20T01:46:17;99831.88;;;-3.53;100.00
45894;BME280;31603;51.148;16.932;2022-11-20T01:48:57;99761.88;;;-3.73;100.00
45894;BME280;31603;51.148;16.932;2022-11-20T01:51:29;99829.22;;;-3.32;100.00
45894;BME280;31603;51.148;16.932;2022-11-20T01:54:14;99783.16;;;-3.81;100.00
45894;BME280;31603;51.148;16.932;2022-11-20T01:56:44;99836.81;;;-3.37;100.00
45894;BME280;31603;51.148;16.932;2022-11-20T01:59:26;99786.06;;;-3.52;100.00
45894;BME280;31603;51.148;16.932;2022-11-20T02:02:17;99789.88;;;-3.54;100.00
45894;BME280;31603;51.148;16.932;2022-11-20T02:04:55;99830.50;;;-3.69;100.00
45894;BME280;31603;51.148;16.932;2022-11-20T02:07:23;99750.63;;;-4.31;100.00
45894;BME280;31603;51.148;16.932;2022-11-20T02:10:04;99704.78;;;-4.39;100.00
45894;BME280;31603;51.148;16.932;2022-11-20T02:12:47;99709.72;;;-4.55;100.00
45894;BME280;31603;51.148;16.932;2022-11-20T02:15:32;99799.34;;;-3.92;100.00
45894;BME280;31603;51.148;16.932;2022-11-20T02:18:04;99757.81;;;-4.20;100.00
45894;BME280;31603;51.148;16.932;2022-11-20T02:20:41;99841.53;;;-3.51;100.00
45894;BME280;31603;51.148;16.932;2022-11-20T02:23:14;99794.53;;;-3.89;100.00
45894;BME280;31603;51.148;16.932;2022-11-20T02:26:03;99715.53;;;-4.39;100.00
45894;BME280;31603;51.148;16.932;2022-11-20T02:28:47;99843.16;;;-3.59;100.00
45894;BME280;31603;51.148;16.932;2022-11-20T02:31:24;99793.59;;;-4.31;100.00
45894;BME280;31603;51.148;16.932;2022-11-20T02:33:57;99844.44;;;-3.75;100.00
45894;BME280;31603;51.148;16.932;2022-11-20T02:36:27;99784.72;;;-4.43;100.00
45894;BME280;31603;51.148;16.932;2022-11-20T02:39:07;99779.03;;;-4.17;100.00
45894;BME280;31603;51.148;16.932;2022-11-20T02:41:46;99824.47;;;-3.93;100.00
45894;BME280;31603;51.148;16.932;2022-11-20T02:44:13;99848.50;;;-3.80;100.00
45894;BME280;31603;51.148;16.932;2022-11-20T02:46:42;99834.13;;;-3.91;100.00
45894;BME280;31603;51.148;16.932;2022-11-20T02:49:35;99784.63;;;-4.09;100.00
45894;BME280;31603;51.148;16.932;2022-11-20T02:52:12;99838.72;;;-3.81;100.00
45894;BME280;31603;51.148;16.932;2022-11-20T02:54:38;99832.19;;;-4.00;100.00
45894;BME280;31603;51.148;16.932;2022-11-20T02:57:22;99791.88;;;-4.00;100.00
45894;BME280;31603;51.148;16.932;2022-11-20T02:59:55;99787.53;;;-4.12;100.00
45894;BME280;31603;51.148;16.932;2022-11-20T03:02:21;99822.44;;;-3.69;100.00
45894;BME280;31603;51.148;16.932;2022-11-20T03:04:55;99811.25;;;-4.17;100.00
45894;BME280;31603;51.148;16.932;2022-11-20T03:07:22;99848.25;;;-3.89;100.00
45894;BME280;31603;51.148;16.932;2022-11-20T03:09:48;99851.13;;;-4.01;100.00
45894;BME280;31603;51.148;16.932;2022-11-20T03:12:42;99838.72;;;-4.14;100.00
45894;BME280;31603;51.148;16.932;2022-11-20T03:15:11;99782.22;;;-4.23;100.00
45894;BME280;31603;51.148;16.932;2022-11-20T03:17:38;99766.84;;;-4.32;100.00
45894;BME280;31603;51.148;16.932;2022-11-20T03:20:15;99802.38;;;-3.97;100.00
45894;BME280;31603;51.148;16.932;2022-11-20T03:22:55;99810.97;;;-4.03;100.00
45894;BME280;31603;51.148;16.932;2022-11-20T03:25:31;99829.00;;;-3.94;100.00
45894;BME280;31603;51.148;16.932;2022-11-20T03:27:59;99783.53;;;-4.18;100.00
45894;BME280;31603;51.148;16.932;2022-11-20T03:30:26;99779.09;;;-4.07;100.00
45894;BME280;31603;51.148;16.932;2022-11-20T03:33:02;99831.00;;;-3.75;100.00
45894;BME280;31603;51.148;16.932;2022-11-20T03:35:29;99772.94;;;-4.19;100.00
45894;BME280;31603;51.148;16.932;2022-11-20T03:37:57;99792.31;;;-3.83;100.00
45894;BME280;31603;51.148;16.932;2022-11-20T03:40:35;99835.72;;;-3.67;100.00
45894;BME280;31603;51.148;16.932;2022-11-20T03:43:03;99842.94;;;-3.68;100.00
45894;BME280;31603;51.148;16.932;2022-11-20T03:45:41;99792.41;;;-4.06;100.00
45894;BME280;31603;51.148;16.932;2022-11-20T03:48:08;99789.75;;;-4.06;100.00
45894;BME280;31603;51.148;16.932;2022-11-20T03:50:41;99838.63;;;-3.91;100.00
45894;BME280;31603;51.148;16.932;2022-11-20T03:53:39;99846.84;;;-4.04;100.00
45894;BME280;31603;51.148;16.932;2022-11-20T03:56:09;99801.44;;;-4.39;100.00
45894;BME280;31603;51.148;16.932;2022-11-20T03:58:39;99784.88;;;-4.67;100.00
45894;BME280;31603;51.148;16.932;2022-11-20T04:01:07;99810.25;;;-4.82;100.00
45894;BME280;31603;51.148;16.932;2022-11-20T04:03:34;99807.16;;;-4.55;100.00
45894;BME280;31603;51.148;16.932;2022-11-20T04:06:19;99828.16;;;-4.60;100.00
45894;BME280;31603;51.148;16.932;2022-11-20T04:08:46;99829.25;;;-4.74;100.00
45894;BME280;31603;51.148;16.932;2022-11-20T04:11:17;99809.88;;;-4.77;100.00
45894;BME280;31603;51.148;16.932;2022-11-20T04:13:47;99850.72;;;-4.74;100.00
45894;BME280;31603;51.148;16.932;2022-11-20T04:16:14;99851.34;;;-4.81;100.00
45894;BME280;31603;51.148;16.932;2022-11-20T04:18:40;99849.97;;;-4.42;100.00
45894;BME280;31603;51.148;16.932;2022-11-20T04:21:17;99824.88;;;-4.64;100.00
45894;BME280;31603;51.148;16.932;2022-11-20T04:23:43;99820.19;;;-4.50;100.00
45894;BME280;31603;51.148;16.932;2022-11-20T04:26:11;99845.97;;;-4.70;100.00
45894;BME280;31603;51.148;16.932;2022-11-20T04:28:57;99785.19;;;-5.50;100.00
45894;BME280;31603;51.148;16.932;2022-11-20T04:31:26;99797.28;;;-5.44;100.00
45894;BME280;31603;51.148;16.932;2022-11-20T04:34:07;99819.84;;;-5.02;100.00
45894;BME280;31603;51.148;16.932;2022-11-20T04:37:05;99840.22;;;-4.88;100.00
45894;BME280;31603;51.148;16.932;2022-11-20T04:39:29;99722.19;;;-5.67;100.00
45894;BME280;31603;51.148;16.932;2022-11-20T04:42:19;99707.63;;;-5.51;100.00
45894;BME280;31603;51.148;16.932;2022-11-20T04:45:03;99792.56;;;-5.18;100.00
45894;BME280;31603;51.148;16.932;2022-11-20T04:47:29;99816.47;;;-5.04;100.00
45894;BME280;31603;51.148;16.932;2022-11-20T04:50:03;99816.69;;;-5.07;100.00
45894;BME280;31603;51.148;16.932;2022-11-20T04:52:37;99822.53;;;-4.79;100.00
45894;BME280;31603;51.148;16.932;2022-11-20T04:55:10;99743.31;;;-5.17;100.00
45894;BME280;31603;51.148;16.932;2022-11-20T04:57:41;99786.72;;;-4.90;100.00
45894;BME280;31603;51.148;16.932;2022-11-20T05:00:12;99823.50;;;-4.36;100.00
45894;BME280;31603;51.148;16.932;2022-11-20T05:02:39;99831.94;;;-4.63;100.00
45894;BME280;31603;51.148;16.932;2022-11-20T05:05:08;99799.75;;;-4.85;100.00
45894;BME280;31603;51.148;16.932;2022-11-20T05:07:34;99825.59;;;-4.84;100.00
45894;BME280;31603;51.148;16.932;2022-11-20T05:10:00;99810.31;;;-5.40;100.00
45894;BME280;31603;51.148;16.932;2022-11-20T05:12:42;99781.81;;;-5.41;100.00
45894;BME280;31603;51.148;16.932;2022-11-20T05:15:14;99733.66;;;-5.53;100.00
45894;BME280;31603;51.148;16.932;2022-11-20T05:17:51;99750.91;;;-5.80;100.00
45894;BME280;31603;51.148;16.932;2022-11-20T05:20:38;99677.47;;;-6.11;100.00
45894;BME280;31603;51.148;16.932;2022-11-20T05:23:10;99703.56;;;-5.68;100.00
45894;BME280;31603;51.148;16.932;2022-11-20T05:25:40;99726.84;;;-5.58;100.00
45894;BME280;31603;51.148;16.932;2022-11-20T05:28:10;99798.75;;;-5.29;100.00
45894;BME280;31603;51.148;16.932;2022-11-20T05:30:41;99791.34;;;-5.14;100.00
45894;BME280;31603;51.148;16.932;2022-11-20T05:33:26;99755.13;;;-5.09;100.00
45894;BME280;31603;51.148;16.932;2022-11-20T05:35:57;99801.81;;;-5.22;100.00
45894;BME280;31603;51.148;16.932;2022-11-20T05:38:24;99751.41;;;-5.75;100.00
45894;BME280;31603;51.148;16.932;2022-11-20T05:40:50;99771.22;;;-5.77;100.00
45894;BME280;31603;51.148;16.932;2022-11-20T05:43:19;99799.81;;;-5.43;100.00
45894;BME280;31603;51.148;16.932;2022-11-20T05:45:58;99795.13;;;-5.63;100.00
45894;BME280;31603;51.148;16.932;2022-11-20T05:48:24;99786.06;;;-5.96;100.00
45894;BME280;31603;51.148;16.932;2022-11-20T05:50:51;99797.91;;;-5.41;100.00
45894;BME280;31603;51.148;16.932;2022-11-20T05:53:20;99785.31;;;-5.51;100.00
45894;BME280;31603;51.148;16.932;2022-11-20T05:55:57;99781.28;;;-5.57;100.00
45894;BME280;31603;51.148;16.932;2022-11-20T05:58:24;99787.25;;;-5.53;100.00
45894;BME280;31603;51.148;16.932;2022-11-20T06:00:53;99692.47;;;-5.97;100.00
45894;BME280;31603;51.148;16.932;2022-11-20T06:03:27;99728.78;;;-5.60;100.00
45894;BME280;31603;51.148;16.932;2022-11-20T06:06:04;99723.41;;;-5.60;100.00
45894;BME280;31603;51.148;16.932;2022-11-20T06:08:38;99690.41;;;-5.94;100.00
45894;BME280;31603;51.148;16.932;2022-11-20T06:11:05;99743.06;;;-5.48;100.00
45894;BME280;31603;51.148;16.932;2022-11-20T06:13:43;99758.16;;;-5.58;100.00
45894;BME280;31603;51.148;16.932;2022-11-20T06:16:14;99797.69;;;-5.15;100.00
45894;BME280;31603;51.148;16.932;2022-11-20T06:18:50;99782.22;;;-5.23;100.00
45894;BME280;31603;51.148;16.932;2022-11-20T06:21:23;99785.34;;;-5.29;100.00
45894;BME280;31603;51.148;16.932;2022-11-20T06:23:51;99778.03;;;-5.85;100.00
45894;BME280;31603;51.148;16.932;2022-11-20T06:26:19;99791.41;;;-5.96;100.00
45894;BME280;31603;51.148;16.932;2022-11-20T06:28:46;99738.84;;;-5.86;100.00
45894;BME280;31603;51.148;16.932;2022-11-20T06:31:16;99761.50;;;-5.78;100.00
45894;BME280;31603;51.148;16.932;2022-11-20T06:33:47;99771.41;;;-5.57;100.00
45894;BME280;31603;51.148;16.932;2022-11-20T06:36:16;99776.31;;;-5.50;100.00
45894;BME280;31603;51.148;16.932;2022-11-20T06:38:43;99758.59;;;-5.75;100.00
45894;BME280;31603;51.148;16.932;2022-11-20T06:41:23;99666.44;;;-6.42;100.00
45894;BME280;31603;51.148;16.932;2022-11-20T06:43:50;99741.66;;;-5.87;100.00
45894;BME280;31603;51.148;16.932;2022-11-20T06:46:22;99716.44;;;-5.96;100.00
45894;BME280;31603;51.148;16.932;2022-11-20T06:49:04;99735.63;;;-6.13;100.00
45894;BME280;31603;51.148;16.932;2022-11-20T06:51:31;99749.53;;;-5.97;100.00
45894;BME280;31603;51.148;16.932;2022-11-20T06:53:58;99789.34;;;-5.46;100.00
45894;BME280;31603;51.148;16.932;2022-11-20T06:56:26;99789.25;;;-5.22;100.00
45894;BME280;31603;51.148;16.932;2022-11-20T06:59:04;99789.97;;;-5.09;100.00
45894;BME280;31603;51.148;16.932;2022-11-20T07:01:38;99745.25;;;-5.30;100.00
45894;BME280;31603;51.148;16.932;2022-11-20T07:04:13;99733.06;;;-5.12;100.00
45894;BME280;31603;51.148;16.932;2022-11-20T07:06:43;99748.31;;;-5.13;100.00
45894;BME280;31603;51.148;16.932;2022-11-20T07:09:23;99777.69;;;-5.22;100.00
45894;BME280;31603;51.148;16.932;2022-11-20T07:11:50;99664.25;;;-5.57;100.00
45894;BME280;31603;51.148;16.932;2022-11-20T07:14:23;99726.88;;;-4.90;100.00
45894;BME280;31603;51.148;16.932;2022-11-20T07:16:57;99777.69;;;-4.89;100.00
45894;BME280;31603;51.148;16.932;2022-11-20T07:19:25;99718.31;;;-4.95;100.00
45894;BME280;31603;51.148;16.932;2022-11-20T07:21:52;99705.16;;;-4.87;100.00
45894;BME280;31603;51.148;16.932;2022-11-20T07:24:20;99718.78;;;-4.24;100.00
45894;BME280;31603;51.148;16.932;2022-11-20T07:26:54;99693.19;;;-4.40;100.00
45894;BME280;31603;51.148;16.932;2022-11-20T07:29:25;99756.16;;;-3.58;100.00
45894;BME280;31603;51.148;16.932;2022-11-20T07:31:57;99710.41;;;-4.10;100.00
45894;BME280;31603;51.148;16.932;2022-11-20T07:34:25;99691.09;;;-3.83;100.00
45894;BME280;31603;51.148;16.932;2022-11-20T07:36:52;99752.16;;;-3.22;100.00
45894;BME280;31603;51.148;16.932;2022-11-20T07:39:25;99721.13;;;-3.26;100.00
45894;BME280;31603;51.148;16.932;2022-11-20T07:41:59;99766.16;;;-2.88;100.00
45894;BME280;31603;51.148;16.932;2022-11-20T07:44:25;99750.69;;;-2.96;100.00
45894;BME280;31603;51.148;16.932;2022-11-20T07:47:02;99748.28;;;-2.58;100.00
45894;BME280;31603;51.148;16.932;2022-11-20T07:49:30;99757.72;;;-2.04;100.00
45894;BME280;31603;51.148;16.932;2022-11-20T07:52:00;99764.69;;;-2.02;100.00
45894;BME280;31603;51.148;16.932;2022-11-20T07:54:44;99763.25;;;-1.48;100.00
45894;BME280;31603;51.148;16.932;2022-11-20T07:57:38;99694.31;;;-1.79;100.00
45894;BME280;31603;51.148;16.932;2022-11-20T08:00:08;99703.06;;;-1.11;100.00
45894;BME280;31603;51.148;16.932;2022-11-20T08:02:42;99705.19;;;-1.52;100.00
45894;BME280;31603;51.148;16.932;2022-11-20T08:05:10;99687.91;;;-1.22;100.00
45894;BME280;31603;51.148;16.932;2022-11-20T08:07:37;99741.78;;;-0.92;100.00
45894;BME280;31603;51.148;16.932;2022-11-20T08:10:04;99721.69;;;-1.74;100.00
45894;BME280;31603;51.148;16.932;2022-11-20T08:12:59;99748.69;;;-0.25;100.00
45894;BME280;31603;51.148;16.932;2022-11-20T08:15:50;99675.66;;;-0.79;100.00
45894;BME280;31603;51.148;16.932;2022-11-20T08:18:22;99726.75;;;0.14;100.00
45894;BME280;31603;51.148;16.932;2022-11-20T08:20:50;99743.75;;;-0.12;100.00
45894;BME280;31603;51.148;16.932;2022-11-20T08:23:17;99740.63;;;0.55;100.00
45894;BME280;31603;51.148;16.932;2022-11-20T08:26:05;99725.13;;;0.21;100.00
45894;BME280;31603;51.148;16.932;2022-11-20T08:28:45;99664.97;;;-0.17;100.00
45894;BME280;31603;51.148;16.932;2022-11-20T08:31:15;99634.13;;;-0.32;100.00
45894;BME280;31603;51.148;16.932;2022-11-20T08:33:43;99727.97;;;0.37;100.00
45894;BME280;31603;51.148;16.932;2022-11-20T08:36:14;99692.63;;;0.39;100.00
45894;BME280;31603;51.148;16.932;2022-11-20T08:38:40;99687.22;;;-0.86;100.00
45894;BME280;31603;51.148;16.932;2022-11-20T08:41:07;99733.06;;;0.40;100.00
45894;BME280;31603;51.148;16.932;2022-11-20T08:43:56;99730.22;;;1.20;100.00
45894;BME280;31603;51.148;16.932;2022-11-20T08:46:24;99725.28;;;1.66;100.00
45894;BME280;31603;51.148;16.932;2022-11-20T08:49:05;99706.59;;;1.38;100.00
45894;BME280;31603;51.148;16.932;2022-11-20T08:51:34;99736.13;;;1.66;100.00
45894;BME280;31603;51.148;16.932;2022-11-20T08:54:04;99726.59;;;1.11;100.00
45894;BME280;31603;51.148;16.932;2022-11-20T08:56:37;99692.97;;;1.22;100.00
45894;BME280;31603;51.148;16.932;2022-11-20T08:59:04;99734.13;;;1.76;100.00
45894;BME280;31603;51.148;16.932;2022-11-20T09:01:42;99689.28;;;1.31;100.00
45894;BME280;31603;51.148;16.932;2022-11-20T09:04:15;99719.03;;;0.63;100.00
45894;BME280;31603;51.148;16.932;2022-11-20T09:06:43;99675.38;;;1.26;100.00
45894;BME280;31603;51.148;16.932;2022-11-20T09:09:09;99719.59;;;2.02;100.00
45894;BME280;31603;51.148;16.932;2022-11-20T09:11:35;99677.91;;;1.95;100.00
45894;BME280;31603;51.148;16.932;2022-11-20T09:14:04;99716.56;;;2.62;100.00
45894;BME280;31603;51.148;16.932;2022-11-20T09:16:35;99676.34;;;2.65;100.00
45894;BME280;31603;51.148;16.932;2022-11-20T09:19:03;99701.34;;;3.08;100.00
45894;BME280;31603;51.148;16.932;2022-11-20T09:21:36;99724.34;;;3.76;100.00
45894;BME280;31603;51.148;16.932;2022-11-20T09:24:08;99661.66;;;2.99;100.00
45894;BME280;31603;51.148;16.932;2022-11-20T09:26:36;99669.16;;;1.42;100.00
45894;BME280;31603;51.148;16.932;2022-11-20T09:29:06;99705.00;;;1.78;100.00
45894;BME280;31603;51.148;16.932;2022-11-20T09:31:32;99656.88;;;1.88;100.00
45894;BME280;31603;51.148;16.932;2022-11-20T09:34:17;99719.66;;;2.51;100.00
45894;BME280;31603;51.148;16.932;2022-11-20T09:36:56;99684.69;;;1.90;100.00
45894;BME280;31603;51.148;16.932;2022-11-20T09:39:24;99642.50;;;1.21;100.00
45894;BME280;31603;51.148;16.932;2022-11-20T09:42:22;99592.81;;;0.88;100.00
45894;BME280;31603;51.148;16.932;2022-11-20T09:45:04;99704.66;;;3.35;100.00
45894;BME280;31603;51.148;16.932;2022-11-20T09:47:51;99654.50;;;2.34;100.00
45894;BME280;31603;51.148;16.932;2022-11-20T09:50:27;99697.84;;;3.70;100.00
45894;BME280;31603;51.148;16.932;2022-11-20T09:53:09;99674.97;;;3.65;100.00
45894;BME280;31603;51.148;16.932;2022-11-20T09:55:38;99687.84;;;4.77;100.00
45894;BME280;31603;51.148;16.932;2022-11-20T09:58:12;99700.44;;;5.08;100.00
45894;BME280;31603;51.148;16.932;2022-11-20T10:01:03;99695.72;;;3.18;100.00
45894;BME280;31603;51.148;16.932;2022-11-20T10:03:40;99664.78;;;2.72;100.00
45894;BME280;31603;51.148;16.932;2022-11-20T10:06:15;99672.22;;;3.33;100.00
45894;BME280;31603;51.148;16.932;2022-11-20T10:08:51;99611.09;;;2.26;100.00
45894;BME280;31603;51.148;16.932;2022-11-20T10:11:29;99644.56;;;2.82;100.00
45894;BME280;31603;51.148;16.932;2022-11-20T10:14:11;99665.00;;;3.18;100.00
45894;BME280;31603;51.148;16.932;2022-11-20T10:17:02;99650.25;;;2.48;100.00
45894;BME280;31603;51.148;16.932;2022-11-20T10:19:47;99641.19;;;4.05;100.00
45894;BME280;31603;51.148;16.932;2022-11-20T10:22:34;99593.16;;;3.20;100.00
45894;BME280;31603;51.148;16.932;2022-11-20T10:25:38;99543.03;;;1.64;100.00
45894;BME280;31603;51.148;16.932;2022-11-20T10:28:36;99655.03;;;4.18;100.00
45894;BME280;31603;51.148;16.932;2022-11-20T10:31:24;99553.28;;;4.19;100.00
45894;BME280;31603;51.148;16.932;2022-11-20T10:34:20;99596.56;;;2.75;100.00
45894;BME280;31603;51.148;16.932;2022-11-20T10:36:56;99636.00;;;3.10;100.00
45894;BME280;31603;51.148;16.932;2022-11-20T10:39:32;99593.78;;;4.96;98.69
45894;BME280;31603;51.148;16.932;2022-11-20T10:42:08;99613.72;;;4.82;88.39
45894;BME280;31603;51.148;16.932;2022-11-20T10:44:58;99609.44;;;6.74;74.28
45894;BME280;31603;51.148;16.932;2022-11-20T10:47:35;99643.28;;;7.08;69.01
45894;BME280;31603;51.148;16.932;2022-11-20T10:50:09;99566.66;;;6.25;67.61
45894;BME280;31603;51.148;16.932;2022-11-20T10:52:59;99569.41;;;4.06;69.93
45894;BME280;31603;51.148;16.932;2022-11-20T10:55:39;99619.53;;;5.23;70.80
45894;BME280;31603;51.148;16.932;2022-11-20T10:58:30;99629.94;;;6.91;62.40
45894;BME280;31603;51.148;16.932;2022-11-20T11:01:13;99618.34;;;6.26;59.18
45894;BME280;31603;51.148;16.932;2022-11-20T11:03:55;99515.09;;;4.13;62.01
45894;BME280;31603;51.148;16.932;2022-11-20T11:06:42;99603.75;;;4.45;64.66
45894;BME280;31603;51.148;16.932;2022-11-20T11:12:38;99547.31;;;6.96;55.70
45894;BME280;31603;51.148;16.932;2022-11-20T11:15:50;99572.78;;;5.26;55.08
45894;BME280;31603;51.148;16.932;2022-11-20T11:18:08;99614.47;;;5.93;58.69
45894;BME280;31603;51.148;16.932;2022-11-20T11:20:35;99615.22;;;5.50;59.22
45894;BME280;31603;51.148;16.932;2022-11-20T11:23:01;99563.22;;;5.52;61.89
45894;BME280;31603;51.148;16.932;2022-11-20T11:25:40;99554.31;;;7.05;58.40
45894;BME280;31603;51.148;16.932;2022-11-20T11:28:38;99596.03;;;6.79;56.08
45894;BME280;31603;51.148;16.932;2022-11-20T11:31:22;99502.56;;;5.93;57.58
45894;BME280;31603;51.148;16.932;2022-11-20T11:34:05;99560.31;;;6.24;56.60
45894;BME280;31603;51.148;16.932;2022-11-20T11:36:42;99591.69;;;5.28;60.82
45894;BME280;31603;51.148;16.932;2022-11-20T11:39:21;99472.94;;;5.04;59.59
45894;BME280;31603;51.148;16.932;2022-11-20T11:41:49;99586.38;;;5.77;60.00
45894;BME280;31603;51.148;16.932;2022-11-20T11:44:18;99490.13;;;6.46;57.65
45894;BME280;31603;51.148;16.932;2022-11-20T11:47:22;99519.19;;;5.98;53.40
45894;BME280;31603;51.148;16.932;2022-11-20T11:50:22;99502.81;;;6.67;54.09
45894;BME280;31603;51.148;16.932;2022-11-20T11:52:56;99545.00;;;7.41;52.65
45894;BME280;31603;51.148;16.932;2022-11-20T11:55:33;99491.78;;;7.63;54.35
45894;BME280;31603;51.148;16.932;2022-11-20T11:58:34;99449.28;;;5.75;57.53
45894;BME280;31603;51.148;16.932;2022-11-20T12:01:32;99510.88;;;5.85;58.83
45894;BME280;31603;51.148;16.932;2022-11-20T12:04:05;99531.16;;;5.97;58.94
45894;BME280;31603;51.148;16.932;2022-11-20T12:06:39;99530.34;;;8.22;55.10
45894;BME280;31603;51.148;16.932;2022-11-20T12:09:10;99561.91;;;7.84;52.91
45894;BME280;31603;51.148;16.932;2022-11-20T12:11:53;99499.97;;;5.20;60.88
45894;BME280;31603;51.148;16.932;2022-11-20T12:14:26;99526.31;;;7.71;60.77
45894;BME280;31603;51.148;16.932;2022-11-20T12:16:56;99519.38;;;7.00;56.20
45894;BME280;31603;51.148;16.932;2022-11-20T12:19:23;99510.19;;;6.67;60.74
45894;BME280;31603;51.148;16.932;2022-11-20T12:22:23;99529.97;;;5.42;68.25
45894;BME280;31603;51.148;16.932;2022-11-20T12:25:01;99545.63;;;5.18;70.33
45894;BME280;31603;51.148;16.932;2022-11-20T12:28:04;99499.59;;;6.50;67.60
45894;BME280;31603;51.148;16.932;2022-11-20T12:30:52;99438.16;;;6.33;57.29
45894;BME280;31603;51.148;16.932;2022-11-20T12:34:00;99451.91;;;7.14;57.33
45894;BME280;31603;51.148;16.932;2022-11-20T12:37:04;99551.53;;;5.79;63.29
45894;BME280;31603;51.148;16.932;2022-11-20T12:39:57;99504.47;;;7.03;61.29
45894;BME280;31603;51.148;16.932;2022-11-20T12:42:52;99440.78;;;4.78;71.72
45894;BME280;31603;51.148;16.932;2022-11-20T12:48:01;99439.53;;;5.38;72.16
45894;BME280;31603;51.148;16.932;2022-11-20T12:49:45;99508.47;;;5.75;72.63
45894;BME280;31603;51.148;16.932;2022-11-20T12:52:37;99464.00;;;6.02;71.87
45894;BME280;31603;51.148;16.932;2022-11-20T12:55:25;99533.78;;;6.40;71.31
45894;BME280;31603;51.148;16.932;2022-11-20T12:58:23;99468.91;;;8.76;58.76
45894;BME280;31603;51.148;16.932;2022-11-20T13:00:58;99499.94;;;8.56;58.47
45894;BME280;31603;51.148;16.932;2022-11-20T13:03:52;99521.88;;;7.63;59.37
45894;BME280;31603;51.148;16.932;2022-11-20T13:06:21;99485.25;;;6.83;63.75
45894;BME280;31603;51.148;16.932;2022-11-20T13:08:53;99458.28;;;7.94;60.95
45894;BME280;31603;51.148;16.932;2022-11-20T13:11:27;99421.66;;;7.76;58.94
45894;BME280;31603;51.148;16.932;2022-11-20T13:14:31;99396.28;;;5.91;67.79
45894;BME280;31603;51.148;16.932;2022-11-20T13:17:06;99415.34;;;7.15;66.30
45894;BME280;31603;51.148;16.932;2022-11-20T13:19:37;99485.75;;;6.17;77.30
45894;BME280;31603;51.148;16.932;2022-11-20T13:22:25;99465.69;;;6.80;74.84
45894;BME280;31603;51.148;16.932;2022-11-20T13:24:58;99474.28;;;7.51;70.56
45894;BME280;31603;51.148;16.932;2022-11-20T13:27:27;99401.44;;;7.96;61.69
45894;BME280;31603;51.148;16.932;2022-11-20T13:30:21;99386.75;;;8.49;60.31
45894;BME280;31603;51.148;16.932;2022-11-20T13:32:53;99476.81;;;7.46;65.54
45894;BME280;31603;51.148;16.932;2022-11-20T13:35:31;99430.34;;;6.78;71.19